Time;durP1;ratioP1;P1;durP2;ratioP2;P2;SDS_P1;SDS_P2;PMS_P1;PMS_P2;Temp;Humidity;BMP_temperature;BMP_pressure;BME280_temperature;BME280_humidity;BME280_pressure;Samples;Min_cycle;Max_cycle;Signal;HPM_P1;HPM_P2
2022/01/02 00:01:47;;;;;;;8.00;7.30;;;;;;;11.48;100.00;100105.59;5072717;28;20235;-64
2022/01/02 00:04:20;;;;;;;7.90;7.30;;;;;;;11.44;100.00;100097.03;5072751;28;20198;-65
2022/01/02 00:06:49;;;;;;;6.90;6.40;;;;;;;11.38;100.00;100088.53;5073034;28;20203;-65
2022/01/02 00:09:30;;;;;;;8.10;7.40;;;;;;;11.45;100.00;100098.72;5072717;28;20192;-64
2022/01/02 00:12:04;;;;;;;7.70;7.00;;;;;;;11.21;100.00;100060.31;5072850;28;20200;-66
2022/01/02 00:14:34;;;;;;;7.20;6.63;;;;;;;11.45;100.00;100105.69;5072615;28;20223;-61
2022/01/02 00:17:03;;;;;;;8.07;7.27;;;;;;;11.46;100.00;100110.84;5072973;28;20200;-60
2022/01/02 00:19:32;;;;;;;7.73;6.80;;;;;;;11.45;100.00;100101.31;5072771;28;20223;-62
2022/01/02 00:22:01;;;;;;;8.33;7.53;;;;;;;11.44;100.00;100112.63;5072788;28;20282;-60
2022/01/02 00:24:29;;;;;;;7.20;6.60;;;;;;;11.42;100.00;100118.72;5072472;28;20195;-60
2022/01/02 00:26:57;;;;;;;7.00;6.47;;;;;;;11.46;100.00;100113.44;5072448;28;20195;-61
2022/01/02 00:29:25;;;;;;;7.70;7.03;;;;;;;11.47;100.00;100119.50;5071645;28;20852;-60
2022/01/02 00:31:52;;;;;;;7.37;6.77;;;;;;;11.50;100.00;100128.09;5072531;28;20204;-61
2022/01/02 00:34:20;;;;;;;7.20;6.60;;;;;;;11.48;100.00;100134.19;5072238;28;20305;-62
2022/01/02 00:36:48;;;;;;;7.00;6.40;;;;;;;11.53;100.00;100132.34;5072172;28;20719;-60
2022/01/02 00:39:17;;;;;;;6.90;6.23;;;;;;;11.55;100.00;100130.56;5072102;28;20253;-61
2022/01/02 00:41:47;;;;;;;7.07;6.47;;;;;;;11.57;100.00;100134.00;5072612;28;20196;-61
2022/01/02 00:44:22;;;;;;;6.63;6.13;;;;;;;11.61;100.00;100131.28;5072255;28;20206;-61
2022/01/02 00:46:53;;;;;;;6.57;5.97;;;;;;;11.60;100.00;100129.59;5072073;28;20296;-64
2022/01/02 00:49:27;;;;;;;7.67;7.03;;;;;;;11.64;100.00;100120.81;5072128;28;20589;-64
2022/01/02 00:52:05;;;;;;;6.23;5.73;;;;;;;11.67;100.00;100129.44;5071926;28;20202;-64
2022/01/02 00:54:34;;;;;;;6.70;6.27;;;;;;;11.61;100.00;100126.09;5071962;28;20224;-63
2022/01/02 00:57:09;;;;;;;7.43;6.57;;;;;;;11.63;100.00;100137.28;5072054;28;20291;-61
2022/01/02 00:59:47;;;;;;;6.30;5.90;;;;;;;11.65;100.00;100143.31;5071942;28;20202;-60
2022/01/02 01:02:17;;;;;;;6.87;6.17;;;;;;;11.63;100.00;100141.63;5072402;28;20565;-61
2022/01/02 01:04:49;;;;;;;6.40;5.90;;;;;;;11.61;100.00;100136.50;5072144;28;20329;-60
2022/01/02 01:07:20;;;;;;;6.77;6.17;;;;;;;11.58;100.00;100139.16;5072122;28;20200;-61
2022/01/02 01:09:48;;;;;;;7.17;6.43;;;;;;;11.60;100.00;100147.78;5071857;28;20837;-65
2022/01/02 01:12:15;;;;;;;6.93;6.33;;;;;;;11.56;100.00;100138.34;5071722;28;20195;-65
2022/01/02 01:14:42;;;;;;;6.53;5.93;;;;;;;11.65;100.00;100137.25;5071566;28;20230;-65
2022/01/02 01:17:10;;;;;;;6.60;6.10;;;;;;;11.49;100.00;100120.31;5071430;28;20287;-65
2022/01/02 01:19:37;;;;;;;6.60;6.10;;;;;;;11.55;100.00;100134.03;5071432;28;20290;-65
2022/01/02 01:22:04;;;;;;;6.80;6.20;;;;;;;11.52;100.00;100141.88;5071330;28;20202;-65
2022/01/02 01:24:35;;;;;;;6.67;6.00;;;;;;;11.58;100.00;100146.97;5071562;28;20719;-65
2022/01/02 01:27:04;;;;;;;6.70;6.20;;;;;;;11.55;100.00;100149.63;5071359;28;20638;-65
2022/01/02 01:29:34;;;;;;;6.60;6.00;;;;;;;11.58;100.00;100135.69;5071342;28;20231;-64
2022/01/02 01:32:01;;;;;;;7.47;6.33;;;;;;;11.46;100.00;100129.03;5071468;28;20630;-65
2022/01/02 01:34:28;;;;;;;6.53;6.00;;;;;;;11.68;100.00;100144.13;5071313;28;20223;-66
2022/01/02 01:36:55;;;;;;;6.50;6.00;;;;;;;11.71;100.00;100136.28;5070965;28;20306;-64
2022/01/02 01:39:22;;;;;;;6.03;5.63;;;;;;;11.63;100.00;100133.84;5070802;28;20203;-63
2022/01/02 01:41:52;;;;;;;6.70;6.10;;;;;;;11.52;100.00;100128.88;5071429;28;20570;-64
2022/01/02 01:44:38;;;;;;;6.67;6.07;;;;;;;11.35;100.00;100097.22;5070890;28;20204;-64
2022/01/02 01:47:05;;;;;;;6.57;5.97;;;;;;;11.47;100.00;100129.91;5070800;28;20203;-64
2022/01/02 01:49:34;;;;;;;6.53;6.00;;;;;;;11.53;100.00;100127.13;5070881;28;20286;-64
2022/01/02 01:52:01;;;;;;;6.77;6.27;;;;;;;11.50;100.00;100129.84;5070804;28;20198;-64
2022/01/02 01:54:28;;;;;;;6.77;6.17;;;;;;;11.54;100.00;100134.91;5070605;28;20198;-64
2022/01/02 01:56:56;;;;;;;6.47;5.97;;;;;;;11.56;100.00;100133.13;5070666;28;20199;-60
2022/01/02 01:59:24;;;;;;;6.23;5.73;;;;;;;11.50;100.00;100132.44;5070607;28;20200;-60
2022/01/02 02:01:52;;;;;;;6.40;5.90;;;;;;;11.49;100.00;100134.19;5070600;28;20207;-60
2022/01/02 02:04:19;;;;;;;6.30;5.80;;;;;;;11.56;100.00;100129.69;5070751;28;20583;-60
2022/01/02 02:06:46;;;;;;;6.23;5.67;;;;;;;11.56;100.00;100130.53;5070748;28;20199;-60
2022/01/02 02:09:13;;;;;;;6.33;5.83;;;;;;;11.63;100.00;100129.50;5070302;28;20448;-60
2022/01/02 02:11:41;;;;;;;6.37;5.67;;;;;;;11.54;100.00;100124.50;5070381;28;20239;-60
2022/01/02 02:14:09;;;;;;;5.70;5.30;;;;;;;11.43;100.00;100125.63;5070331;28;20242;-60
2022/01/02 02:16:37;;;;;;;6.20;5.50;;;;;;;11.37;100.00;100112.78;5070224;28;20226;-60
2022/01/02 02:19:05;;;;;;;6.20;5.70;;;;;;;11.37;100.00;100108.47;5070183;28;20200;-60
2022/01/02 02:21:35;;;;;;;6.53;5.93;;;;;;;11.41;100.00;100124.81;5070197;28;20199;-64
2022/01/02 02:24:02;;;;;;;6.70;6.13;;;;;;;11.43;100.00;100116.09;5070503;28;20250;-65
2022/01/02 02:26:29;;;;;;;6.40;6.00;;;;;;;11.40;100.00;100116.16;5070432;28;20249;-65
2022/01/02 02:28:56;;;;;;;6.53;6.00;;;;;;;11.24;100.00;100096.63;5070186;28;20203;-65
2022/01/02 02:31:23;;;;;;;6.03;5.63;;;;;;;11.35;100.00;100123.22;5070092;28;20290;-65
2022/01/02 02:33:50;;;;;;;7.33;6.73;;;;;;;11.38;100.00;100117.97;5070213;28;20207;-65
2022/01/02 02:36:18;;;;;;;6.37;5.87;;;;;;;11.38;100.00;100123.16;5069874;28;20291;-64
2022/01/02 02:38:46;;;;;;;7.27;6.67;;;;;;;11.38;100.00;100122.31;5070352;28;20196;-63
2022/01/02 02:41:13;;;;;;;6.30;5.90;;;;;;;11.32;100.00;100123.28;5070171;28;20253;-64
2022/01/02 02:43:47;;;;;;;7.03;6.53;;;;;;;11.23;100.00;100123.50;5070012;28;20242;-63
2022/01/02 02:49:03;;;;;;;7.77;7.07;;;;;;;11.25;100.00;100125.19;5070051;28;20199;-65
2022/01/02 02:51:39;;;;;;;7.30;6.80;;;;;;;11.22;100.00;100129.56;5069458;28;20204;-60
2022/01/02 02:54:09;;;;;;;8.20;7.50;;;;;;;11.24;100.00;100130.41;5069818;28;20192;-59
2022/01/02 02:56:44;;;;;;;7.23;6.60;;;;;;;11.21;100.00;100131.31;5069817;28;20314;-60
2022/01/02 02:59:12;;;;;;;7.10;6.60;;;;;;;11.31;100.00;100121.56;5070064;28;20191;-65
2022/01/02 03:01:40;;;;;;;8.80;7.37;;;;;;;11.35;100.00;100127.56;5070291;28;20623;-65
2022/01/02 03:04:07;;;;;;;7.07;6.57;;;;;;;11.13;100.00;100101.19;5069772;28;20199;-60
2022/01/02 03:06:34;;;;;;;7.73;7.03;;;;;;;11.20;100.00;100120.94;5069916;28;20191;-61
2022/01/02 03:09:08;;;;;;;8.07;7.27;;;;;;;11.25;100.00;100129.50;5070080;28;20207;-60
2022/01/02 03:11:39;;;;;;;7.40;6.77;;;;;;;11.20;100.00;100116.63;5069688;28;20195;-64
2022/01/02 03:14:07;;;;;;;7.00;6.30;;;;;;;11.30;100.00;100125.06;5069838;28;20734;-64
2022/01/02 03:16:34;;;;;;;6.83;6.10;;;;;;;11.31;100.00;100131.09;5069593;28;20226;-64
2022/01/02 03:19:01;;;;;;;6.90;6.37;;;;;;;11.23;100.00;100118.28;5069671;28;20202;-65
2022/01/02 03:21:28;;;;;;;7.80;7.20;;;;;;;11.37;100.00;100146.59;5069716;28;20643;-64
2022/01/02 03:23:55;;;;;;;7.20;6.60;;;;;;;11.36;100.00;100144.88;5069769;28;20206;-65
2022/01/02 03:26:23;;;;;;;7.07;6.57;;;;;;;11.31;100.00;100155.34;5069672;28;20192;-59
2022/01/02 03:28:51;;;;;;;7.73;7.03;;;;;;;11.31;100.00;100154.50;5069726;28;20196;-60
2022/01/02 03:31:18;;;;;;;6.60;6.10;;;;;;;11.31;100.00;100163.16;5069524;28;20200;-65
2022/01/02 03:33:45;;;;;;;7.47;6.83;;;;;;;11.32;100.00;100169.22;5069689;28;20287;-64
2022/01/02 03:36:12;;;;;;;6.97;6.40;;;;;;;11.36;100.00;100171.72;5069220;28;20228;-60
2022/01/02 03:38:39;;;;;;;7.90;7.20;;;;;;;11.35;100.00;100170.00;5069500;28;20279;-59
2022/01/02 03:41:06;;;;;;;8.00;7.37;;;;;;;11.35;100.00;100174.34;5069406;28;20198;-60
2022/01/02 03:43:33;;;;;;;8.00;7.33;;;;;;;11.33;100.00;100166.59;5069531;28;20287;-62
2022/01/02 03:46:03;;;;;;;8.57;7.83;;;;;;;11.36;100.00;100150.94;5069541;28;20196;-59
2022/01/02 03:48:31;;;;;;;8.50;7.70;;;;;;;11.26;100.00;100149.41;5069308;28;20196;-59
2022/01/02 03:50:58;;;;;;;8.03;7.47;;;;;;;11.28;100.00;100166.69;5069409;28;20203;-59
2022/01/02 03:53:25;;;;;;;7.90;7.20;;;;;;;11.18;100.00;100141.78;5069378;28;20192;-59
2022/01/02 03:55:52;;;;;;;8.00;7.30;;;;;;;11.25;100.00;100151.16;5069227;28;20219;-60
2022/01/02 03:58:19;;;;;;;8.10;7.40;;;;;;;11.30;100.00;100153.66;5069459;28;20192;-65
2022/01/02 04:00:46;;;;;;;8.30;7.70;;;;;;;11.34;100.00;100163.09;5069462;28;20584;-65
2022/01/02 04:03:15;;;;;;;8.47;7.80;;;;;;;11.15;100.00;100139.25;5070910;28;20295;-65
2022/01/02 04:05:43;;;;;;;8.07;7.37;;;;;;;11.18;100.00;100151.31;5072844;28;20214;-65
2022/01/02 04:08:10;;;;;;;8.43;7.63;;;;;;;11.25;100.00;100163.31;5072683;28;20195;-65
2022/01/02 04:10:37;;;;;;;8.63;7.97;;;;;;;11.23;100.00;100168.53;5072981;28;20607;-65
2022/01/02 04:13:04;;;;;;;8.90;8.10;;;;;;;11.20;100.00;100170.31;5072903;28;20747;-65
2022/01/02 04:15:31;;;;;;;8.97;8.07;;;;;;;11.19;100.00;100176.41;5072634;28;20465;-66
2022/01/02 04:17:58;;;;;;;8.10;7.47;;;;;;;11.20;100.00;100176.38;5072927;28;20683;-64
2022/01/02 04:20:26;;;;;;;8.83;8.03;;;;;;;11.16;100.00;100181.69;5072627;28;20290;-65
2022/01/02 04:22:53;;;;;;;8.07;7.37;;;;;;;11.16;100.00;100189.47;5072557;28;20200;-65
2022/01/02 04:25:20;;;;;;;10.70;8.83;;;;;;;11.18;100.00;100183.34;5072473;28;20239;-64
2022/01/02 04:27:47;;;;;;;9.03;8.30;;;;;;;11.19;100.00;100189.41;5072631;28;20196;-61
2022/01/02 04:30:14;;;;;;;9.60;8.80;;;;;;;10.94;100.00;100157.88;5072346;28;20196;-63
2022/01/02 04:32:41;;;;;;;9.10;8.30;;;;;;;11.19;100.00;100179.00;5072377;28;20282;-65
2022/01/02 04:35:10;;;;;;;9.03;8.33;;;;;;;11.15;100.00;100187.75;5071956;28;20618;-61
2022/01/02 04:37:38;;;;;;;9.67;8.67;;;;;;;11.13;100.00;100194.72;5072495;28;20204;-60
2022/01/02 04:40:06;;;;;;;9.17;8.30;;;;;;;11.04;100.00;100193.19;5072230;28;20238;-61
2022/01/02 04:42:33;;;;;;;9.03;8.23;;;;;;;11.22;100.00;100195.41;5072485;28;20196;-61
2022/01/02 04:45:00;;;;;;;8.93;8.07;;;;;;;11.16;100.00;100199.88;5072346;28;20199;-65
2022/01/02 04:47:27;;;;;;;9.57;8.67;;;;;;;11.21;100.00;100198.03;5072045;28;20196;-65
2022/01/02 04:49:54;;;;;;;8.63;7.93;;;;;;;11.25;100.00;100194.47;5072065;28;20200;-65
2022/01/02 04:52:21;;;;;;;9.57;8.70;;;;;;;11.24;100.00;100203.16;5071996;28;20291;-65
2022/01/02 04:54:50;;;;;;;9.03;8.33;;;;;;;11.25;100.00;100203.13;5071871;28;20232;-65
2022/01/02 04:57:16;;;;;;;9.57;8.67;;;;;;;11.36;100.00;100199.44;5072012;28;20222;-65
2022/01/02 04:59:43;;;;;;;9.53;8.73;;;;;;;11.33;100.00;100210.75;5071851;28;20200;-65
2022/01/02 05:02:10;;;;;;;9.60;8.63;;;;;;;11.30;100.00;100203.03;5071440;28;20282;-65
2022/01/02 05:04:37;;;;;;;9.77;8.73;;;;;;;11.33;100.00;100210.75;5071012;28;20196;-65
2022/01/02 05:07:05;;;;;;;9.00;8.17;;;;;;;11.27;100.00;100213.50;5068591;28;20249;-65
2022/01/02 05:09:32;;;;;;;10.23;9.23;;;;;;;11.20;100.00;100210.16;5071543;28;20204;-65
2022/01/02 05:12:00;;;;;;;10.50;9.47;;;;;;;11.16;100.00;100208.53;5071798;28;20279;-65
2022/01/02 05:14:28;;;;;;;9.57;8.77;;;;;;;11.15;100.00;100213.75;5070965;28;20290;-60
2022/01/02 05:16:55;;;;;;;10.50;9.60;;;;;;;10.78;100.00;100151.28;5067912;28;20599;-61
2022/01/02 05:19:22;;;;;;;13.03;10.17;;;;;;;11.12;100.00;100217.25;5069367;28;20219;-62
2022/01/02 05:21:49;;;;;;;10.57;9.57;;;;;;;11.16;100.00;100210.25;5070836;28;20276;-62
2022/01/02 05:24:16;;;;;;;10.27;9.23;;;;;;;11.13;100.00;100211.19;5070582;28;20251;-62
2022/01/02 05:26:43;;;;;;;9.97;9.17;;;;;;;11.09;100.00;100206.91;5068919;28;20251;-61
2022/01/02 05:29:11;;;;;;;9.33;8.53;;;;;;;11.06;100.00;100204.38;5067282;28;20192;-61
2022/01/02 05:31:38;;;;;;;11.07;9.97;;;;;;;11.09;100.00;100214.72;5069928;28;20206;-61
2022/01/02 05:34:05;;;;;;;11.20;10.10;;;;;;;11.08;100.00;100217.34;5069856;28;20622;-62
2022/01/02 05:36:32;;;;;;;9.60;8.77;;;;;;;11.10;100.00;100213.81;5069646;28;20318;-62
2022/01/02 05:38:59;;;;;;;10.63;9.60;;;;;;;11.14;100.00;100212.03;5065238;28;21019;-61
2022/01/02 05:41:28;;;;;;;10.13;9.17;;;;;;;11.13;100.00;100205.13;5065808;28;20223;-62
2022/01/02 05:43:55;;;;;;;10.67;9.67;;;;;;;11.02;100.00;100201.88;5069046;28;20251;-60
2022/01/02 05:46:24;;;;;;;10.63;9.63;;;;;;;11.10;100.00;100212.97;5068926;28;20215;-60
2022/01/02 05:48:52;;;;;;;9.67;8.77;;;;;;;11.17;100.00;100211.97;5068886;28;20774;-60
2022/01/02 05:51:19;;;;;;;10.07;9.23;;;;;;;11.22;100.00;100215.31;5068448;28;20230;-62
2022/01/02 05:53:46;;;;;;;9.10;8.40;;;;;;;11.26;100.00;100217.00;5068826;28;20372;-60
2022/01/02 05:56:13;;;;;;;9.53;8.63;;;;;;;11.24;100.00;100222.22;5067555;28;20698;-60
2022/01/02 05:58:40;;;;;;;9.67;8.77;;;;;;;11.28;100.00;100215.22;5068794;28;20234;-60
2022/01/02 06:01:07;;;;;;;8.30;7.70;;;;;;;11.30;100.00;100223.81;5068936;28;20663;-60
2022/01/02 06:03:35;;;;;;;9.67;8.67;;;;;;;11.35;100.00;100224.59;5069699;28;20224;-59
2022/01/02 06:06:03;;;;;;;10.07;9.07;;;;;;;11.40;100.00;100233.13;5070247;28;20259;-60
2022/01/02 06:08:30;;;;;;;9.23;8.43;;;;;;;11.44;100.00;100229.59;5070071;28;20597;-59
2022/01/02 06:10:57;;;;;;;10.63;8.27;;;;;;;11.40;100.00;100235.72;5068849;28;20242;-62
2022/01/02 06:13:24;;;;;;;9.67;8.87;;;;;;;11.52;100.00;100232.88;5069419;28;20319;-63
2022/01/02 06:15:51;;;;;;;13.43;10.50;;;;;;;11.54;100.00;100248.44;5069863;28;20231;-61
2022/01/02 06:18:19;;;;;;;11.77;10.17;;;;;;;11.43;100.00;100222.69;5069663;28;20751;-61
2022/01/02 06:20:47;;;;;;;10.63;9.70;;;;;;;11.59;100.00;100244.03;5069914;28;20215;-61
2022/01/02 06:23:15;;;;;;;8.93;8.07;;;;;;;11.57;100.00;100245.78;5069418;28;20770;-60
2022/01/02 06:25:43;;;;;;;10.03;9.03;;;;;;;11.58;100.00;100250.09;5069164;28;20215;-61
2022/01/02 06:28:09;;;;;;;9.67;8.67;;;;;;;11.59;100.00;100247.47;5068940;28;20299;-62
2022/01/02 06:30:37;;;;;;;9.03;8.23;;;;;;;11.59;100.00;100247.47;5069795;28;20219;-63
2022/01/02 06:33:03;;;;;;;8.90;8.20;;;;;;;11.65;100.00;100244.72;5069630;28;20223;-62
2022/01/02 06:35:33;;;;;;;9.40;8.60;;;;;;;11.73;100.00;100256.72;5069508;28;20240;-63
2022/01/02 06:38:11;;;;;;;7.63;7.13;;;;;;;11.81;100.00;100263.50;5068973;28;20659;-62
2022/01/02 06:40:38;;;;;;;7.53;6.93;;;;;;;11.87;100.00;100265.97;5066124;28;20222;-62
2022/01/02 06:43:05;;;;;;;7.50;7.00;;;;;;;11.93;100.00;100277.97;5068170;28;20680;-62
2022/01/02 06:45:32;;;;;;;7.43;6.90;;;;;;;11.97;100.00;100274.41;5068573;28;20216;-61
2022/01/02 06:48:00;;;;;;;10.57;7.70;;;;;;;12.01;100.00;100281.25;5067884;28;20322;-60
2022/01/02 06:50:26;;;;;;;8.43;7.83;;;;;;;12.12;100.00;100283.63;5067980;28;20667;-59
2022/01/02 06:52:53;;;;;;;8.00;7.40;;;;;;;12.18;100.00;100279.16;5067996;28;20224;-60
2022/01/02 06:55:22;;;;;;;7.70;7.00;;;;;;;12.16;100.00;100280.06;5067887;28;20225;-59
2022/01/02 06:57:49;;;;;;;8.53;7.73;;;;;;;12.22;100.00;100291.19;5065273;28;20228;-60
2022/01/02 07:00:16;;;;;;;7.63;7.07;;;;;;;12.25;100.00;100295.47;5068005;28;20590;-60
2022/01/02 07:02:43;;;;;;;7.43;6.93;;;;;;;12.22;100.00;100285.97;5067951;28;20262;-61
2022/01/02 07:05:10;;;;;;;7.70;7.00;;;;;;;12.28;100.00;100291.06;5067447;28;20711;-60
2022/01/02 07:07:41;;;;;;;7.70;7.10;;;;;;;12.34;100.00;100290.03;5066284;28;20226;-60
2022/01/02 07:10:09;;;;;;;7.50;7.00;;;;;;;12.32;100.00;100284.00;5066157;28;20236;-60
2022/01/02 07:12:37;;;;;;;8.37;7.33;;;;;;;12.38;100.00;100283.88;5064901;28;20226;-60
2022/01/02 07:15:05;;;;;;;7.07;6.57;;;;;;;12.31;100.00;100290.97;5066795;28;20215;-63
2022/01/02 07:17:32;;;;;;;7.83;7.23;;;;;;;12.33;100.00;100285.72;5064473;28;20314;-62
2022/01/02 07:19:59;;;;;;;7.80;7.20;;;;;;;12.30;100.00;100278.84;5065183;28;20219;-62
2022/01/02 07:22:26;;;;;;;7.83;7.20;;;;;;;12.40;100.00;100284.72;5067801;28;20703;-62
2022/01/02 07:24:53;;;;;;;7.50;6.90;;;;;;;12.42;100.00;100287.25;5067609;28;20222;-62
2022/01/02 07:27:20;;;;;;;7.33;6.83;;;;;;;12.48;100.00;100289.72;5064548;28;20215;-60
2022/01/02 07:29:49;;;;;;;7.13;6.63;;;;;;;12.58;100.00;100291.19;5067630;28;20715;-59
2022/01/02 07:32:17;;;;;;;7.80;7.20;;;;;;;12.63;100.00;100299.78;5067184;28;20215;-60
2022/01/02 07:34:44;;;;;;;7.80;7.20;;;;;;;12.52;100.00;100279.19;5067256;28;20298;-61
2022/01/02 07:37:11;;;;;;;7.53;6.93;;;;;;;12.81;100.00;100307.13;5067389;28;20230;-60
2022/01/02 07:39:38;;;;;;;8.70;7.20;;;;;;;12.88;100.00;100297.38;5068848;28;20302;-62
2022/01/02 07:42:06;;;;;;;7.17;6.53;;;;;;;12.96;100.00;100300.66;5070849;28;20222;-63
2022/01/02 07:44:33;;;;;;;7.30;6.80;;;;;;;12.99;100.00;100306.63;5071404;28;20222;-60
2022/01/02 07:47:02;;;;;;;13.87;8.03;;;;;;;13.02;100.00;100285.72;5070363;28;20208;-62
2022/01/02 07:49:29;;;;;;;13.80;9.63;;;;;;;13.17;100.00;100307.09;5070195;28;20682;-63
2022/01/02 07:51:55;;;;;;;12.87;8.60;;;;;;;13.15;100.00;100286.28;5067911;28;20216;-60
2022/01/02 07:54:22;;;;;;;8.50;7.80;;;;;;;13.31;100.00;100304.97;5069430;28;20213;-62
2022/01/02 07:56:49;;;;;;;15.27;11.23;;;;;;;13.36;100.00;100303.94;5069194;28;20721;-60
2022/01/02 07:59:16;;;;;;;14.43;11.70;;;;;;;13.36;100.00;100306.53;5069351;28;20230;-60
2022/01/02 08:01:43;;;;;;;8.57;7.80;;;;;;;13.39;100.00;100300.41;5071584;28;20645;-61
2022/01/02 08:04:12;;;;;;;13.03;7.83;;;;;;;13.27;100.00;100290.31;5071214;28;20321;-62
2022/01/02 08:06:39;;;;;;;14.27;12.50;;;;;;;13.36;100.00;100309.16;5072779;28;20707;-61
2022/01/02 08:09:06;;;;;;;17.23;12.70;;;;;;;13.34;100.00;100312.69;5071647;28;20586;-60
2022/01/02 08:11:33;;;;;;;13.30;10.93;;;;;;;13.37;100.00;100303.03;5070268;28;20215;-61
2022/01/02 08:14:00;;;;;;;15.37;12.93;;;;;;;13.42;100.00;100313.38;5071104;28;20215;-62
2022/01/02 08:16:27;;;;;;;9.30;8.50;;;;;;;13.52;100.00;100317.41;5070673;28;20227;-61
2022/01/02 08:18:54;;;;;;;20.87;16.37;;;;;;;13.59;100.00;100312.88;5070620;28;20211;-60
2022/01/02 08:21:23;;;;;;;17.07;12.67;;;;;;;13.69;100.00;100319.53;5071670;28;20228;-60
2022/01/02 08:23:49;;;;;;;11.03;8.47;;;;;;;13.56;100.00;100299.91;5072031;28;20311;-60
2022/01/02 08:26:16;;;;;;;18.00;13.63;;;;;;;13.70;100.00;100324.72;5071098;28;20247;-63
2022/01/02 08:28:43;;;;;;;9.13;7.40;;;;;;;13.80;100.00;100323.53;5069944;28;20345;-61
2022/01/02 08:31:10;;;;;;;11.97;8.80;;;;;;;13.83;100.00;100296.50;5071183;28;20604;-61
2022/01/02 08:33:37;;;;;;;11.57;9.83;;;;;;;13.91;100.00;100306.72;5071839;28;20220;-63
2022/01/02 08:36:05;;;;;;;19.37;15.20;;;;;;;14.05;100.00;100328.03;5071316;28;20227;-60
2022/01/02 08:38:33;;;;;;;15.37;12.90;;;;;;;14.08;100.00;100322.75;5069088;28;20228;-60
2022/01/02 08:41:00;;;;;;;12.20;8.63;;;;;;;14.08;100.00;100326.22;5070878;28;20234;-60
2022/01/02 08:43:27;;;;;;;8.80;6.90;;;;;;;14.00;100.00;100327.31;5069460;28;20306;-59
2022/01/02 08:45:54;;;;;;;22.10;15.77;;;;;;;14.03;100.00;100324.63;5069920;28;20699;-60
2022/01/02 08:48:22;;;;;;;12.53;11.33;;;;;;;14.07;100.00;100326.25;5071463;28;20219;-60
2022/01/02 08:50:49;;;;;;;10.53;8.47;;;;;;;14.11;100.00;100323.47;5070235;28;20223;-59
2022/01/02 08:53:16;;;;;;;15.37;10.90;;;;;;;14.09;100.00;100325.31;5056824;28;20718;-60
2022/01/02 08:55:46;;;;;;;11.17;7.87;;;;;;;14.17;100.00;100325.94;5055152;28;20220;-61
2022/01/02 08:58:13;;;;;;;8.70;7.80;;;;;;;14.26;100.00;100322.16;5069333;28;20226;-60
2022/01/02 09:00:40;;;;;;;9.67;8.67;;;;;;;14.14;100.00;100301.66;5069855;28;20250;-61
2022/01/02 09:03:07;;;;;;;18.83;12.03;;;;;;;14.34;100.00;100324.53;5069908;28;20314;-61
2022/01/02 09:05:34;;;;;;;10.37;8.30;;;;;;;14.37;100.00;100320.06;5070358;28;20215;-60
2022/01/02 09:08:01;;;;;;;10.43;9.40;;;;;;;14.38;100.00;100321.78;5069903;28;20230;-59
2022/01/02 09:10:28;;;;;;;16.97;11.37;;;;;;;14.45;100.00;100320.72;5069482;28;20231;-59
2022/01/02 09:12:56;;;;;;;11.87;8.80;;;;;;;14.48;100.00;100311.94;5069850;28;20200;-60
2022/01/02 09:15:23;;;;;;;13.60;11.00;;;;;;;14.43;100.00;100309.47;5070573;28;20210;-61
2022/01/02 09:17:50;;;;;;;10.10;9.17;;;;;;;14.48;100.00;100297.09;5070897;28;20222;-62
2022/01/02 09:20:17;;;;;;;16.10;10.43;;;;;;;14.48;100.00;100301.47;5071169;28;20279;-62
2022/01/02 09:22:46;;;;;;;9.80;8.83;;;;;;;14.51;100.00;100291.78;5071392;28;20287;-62
2022/01/02 09:25:13;;;;;;;9.07;8.23;;;;;;;14.51;100.00;100289.19;5071302;28;20203;-62
2022/01/02 09:27:41;;;;;;;9.50;8.13;;;;;;;14.56;99.98;100282.97;5071444;28;20279;-62
2022/01/02 09:30:10;;;;;;;8.30;7.53;;;;;;;14.59;99.22;100281.09;5071758;28;20608;-62
2022/01/02 09:32:38;;;;;;;11.83;9.73;;;;;;;14.57;99.01;100263.75;5071722;28;20201;-60
2022/01/02 09:35:07;;;;;;;6.97;6.37;;;;;;;13.51;97.88;100078.38;5071009;28;20234;-60
2022/01/02 09:37:34;;;;;;;13.60;9.17;;;;;;;14.69;98.33;100268.56;5071131;28;20779;-60
2022/01/02 09:40:04;;;;;;;9.77;7.03;;;;;;;14.74;96.92;100271.88;5071126;28;20253;-62
2022/01/02 09:42:33;;;;;;;8.97;7.63;;;;;;;14.77;97.59;100266.56;5071096;28;20207;-60
2022/01/02 09:45:00;;;;;;;6.57;6.00;;;;;;;14.86;97.16;100266.25;5070874;28;20323;-62
2022/01/02 09:47:30;;;;;;;13.13;8.63;;;;;;;14.93;96.99;100272.97;5070600;28;20286;-63
2022/01/02 09:49:57;;;;;;;10.90;9.80;;;;;;;14.93;97.19;100272.09;5070749;28;20283;-62
2022/01/02 09:52:24;;;;;;;11.90;7.43;;;;;;;14.97;95.73;100268.50;5070665;28;20287;-62
2022/01/02 09:54:51;;;;;;;14.83;7.03;;;;;;;14.91;95.86;100269.53;5070863;28;20576;-64
2022/01/02 09:57:19;;;;;;;11.13;7.60;;;;;;;14.92;96.34;100260.78;5070637;28;20216;-64
2022/01/02 09:59:46;;;;;;;12.53;7.40;;;;;;;14.86;96.18;100254.03;5070678;28;20686;-62
2022/01/02 10:02:13;;;;;;;7.87;6.90;;;;;;;14.89;96.77;100253.09;5070253;28;20235;-62
2022/01/02 10:04:43;;;;;;;14.20;7.17;;;;;;;14.91;95.76;100251.25;5070912;28;20199;-62
2022/01/02 10:07:28;;;;;;;12.17;7.60;;;;;;;15.00;96.50;100244.88;5070556;28;20192;-62
2022/01/02 10:09:55;;;;;;;11.70;7.13;;;;;;;15.03;96.40;100236.88;5070401;28;20207;-62
2022/01/02 10:12:27;;;;;;;10.77;7.00;;;;;;;15.05;96.21;100228.09;5070164;28;20210;-62
2022/01/02 10:15:14;;;;;;;9.97;7.30;;;;;;;14.95;95.62;100211.03;5070561;28;20197;-62
2022/01/02 10:18:00;;;;;;;11.13;7.27;;;;;;;15.06;96.00;100232.41;5070491;28;20219;-61
2022/01/02 10:20:31;;;;;;;16.20;8.20;;;;;;;15.09;96.45;100229.69;5070204;28;20202;-62
2022/01/02 10:23:07;;;;;;;10.20;7.57;;;;;;;15.06;96.68;100221.97;5058021;28;20347;-62
2022/01/02 10:25:42;;;;;;;8.73;7.30;;;;;;;15.04;97.28;100221.16;5062118;28;20290;-62
2022/01/02 10:28:29;;;;;;;19.67;12.83;;;;;;;15.07;96.87;100214.97;5068305;28;20215;-60
2022/01/02 10:30:59;;;;;;;15.87;9.73;;;;;;;15.06;96.44;100200.19;5068686;28;20234;-60
2022/01/02 10:33:28;;;;;;;9.43;7.37;;;;;;;14.95;96.37;100179.66;5068565;28;20315;-60
2022/01/02 10:36:03;;;;;;;15.67;7.20;;;;;;;15.08;96.33;100190.53;5069315;28;20230;-61
2022/01/02 10:38:32;;;;;;;14.07;7.60;;;;;;;15.13;97.23;100202.50;5069446;28;20677;-61
2022/01/02 10:40:59;;;;;;;7.80;7.00;;;;;;;15.12;97.08;100205.22;5069897;28;20233;-61
2022/01/02 10:43:29;;;;;;;13.30;7.60;;;;;;;15.17;96.98;100196.28;5069975;28;20191;-62
2022/01/02 10:45:57;;;;;;;19.20;12.13;;;;;;;15.21;97.01;100182.19;5056379;28;20227;-61
2022/01/02 10:48:35;;;;;;;11.47;7.10;;;;;;;15.26;95.58;100190.69;5049193;28;20242;-61
2022/01/02 10:51:07;;;;;;;11.40;8.53;;;;;;;15.21;96.80;100189.19;5048927;28;20254;-61
2022/01/02 10:53:35;;;;;;;6.20;5.70;;;;;;;15.21;96.27;100186.56;5049155;28;20228;-61
2022/01/02 10:56:03;;;;;;;15.00;8.90;;;;;;;15.31;94.88;100187.06;5049386;28;20307;-61
2022/01/02 10:58:30;;;;;;;7.70;6.97;;;;;;;15.28;95.09;100185.41;5049099;28;20225;-61
2022/01/02 11:01:03;;;;;;;12.10;8.73;;;;;;;15.22;96.23;100183.88;5049412;28;20231;-61
2022/01/02 11:03:31;;;;;;;8.30;7.53;;;;;;;15.24;95.21;100174.19;5049091;28;20216;-64
2022/01/02 11:06:05;;;;;;;12.03;9.53;;;;;;;15.38;94.74;100185.91;5066010;28;20568;-60
2022/01/02 11:08:35;;;;;;;9.63;8.73;;;;;;;15.37;94.69;100181.59;5065779;28;20195;-60
2022/01/02 11:11:02;;;;;;;7.10;5.77;;;;;;;15.35;94.57;100181.66;5068904;28;20210;-60
2022/01/02 11:13:29;;;;;;;9.20;7.40;;;;;;;15.35;94.46;100172.97;5071025;28;20211;-61
2022/01/02 11:15:56;;;;;;;6.40;5.80;;;;;;;15.36;94.39;100169.41;5072959;28;20204;-61
2022/01/02 11:18:25;;;;;;;7.83;6.47;;;;;;;15.37;93.98;100173.75;5072616;28;20216;-60
2022/01/02 11:20:53;;;;;;;6.60;5.90;;;;;;;15.40;93.07;100168.41;5072804;28;20200;-60
2022/01/02 11:23:24;;;;;;;7.30;6.60;;;;;;;15.39;92.98;100171.94;5072720;28;20200;-60